Time;durP1;ratioP1;P1;durP2;ratioP2;P2;SDS_P1;SDS_P2;PMS_P1;PMS_P2;Temp;Humidity;BMP_temperature;BMP_pressure;BME280_temperature;BME280_humidity;BME280_pressure;Samples;Min_cycle;Max_cycle;Signal;HPM_P1;HPM_P2
2022/04/19 00:00:37;;;;;;;2.47;1.90;;;;;;;;;;5102139;28;20274;-69
2022/04/19 00:03:04;;;;;;;1.85;1.85;;;;;;;;;;5102234;28;20503;-70
2022/04/19 00:05:30;;;;;;;1.85;1.75;;;;;;;;;;5102081;28;20228;-69
2022/04/19 00:07:56;;;;;;;1.98;1.88;;;;;;;;;;5102159;28;20219;-69
2022/04/19 00:10:23;;;;;;;1.95;1.90;;;;;;;;;;5102343;28;20196;-69
2022/04/19 00:12:49;;;;;;;2.03;1.92;;;;;;;;;;5106168;28;20203;-70
2022/04/19 00:15:16;;;;;;;2.13;1.80;;;;;;;;;;5106082;28;20545;-70
2022/04/19 00:17:43;;;;;;;2.38;2.28;;;;;;;;;;5105807;28;20192;-69
2022/04/19 00:20:10;;;;;;;2.10;2.00;;;;;;;;;;5105697;28;20367;-69
2022/04/19 00:22:38;;;;;;;2.05;1.98;;;;;;;;;;5106090;28;20227;-69
2022/04/19 00:25:06;;;;;;;1.80;1.80;;;;;;;;;;5106005;28;20230;-69
2022/04/19 00:27:33;;;;;;;2.20;1.60;;;;;;;;;;5105809;28;20557;-69
2022/04/19 00:29:59;;;;;;;1.98;1.80;;;;;;;;;;5105828;28;20195;-69
2022/04/19 00:32:25;;;;;;;1.98;1.88;;;;;;;;;;5105686;28;20253;-69
2022/04/19 00:34:53;;;;;;;2.25;2.17;;;;;;;;;;5105542;28;20196;-69
2022/04/19 00:37:19;;;;;;;2.13;2.03;;;;;;;;;;5105479;28;20230;-69
2022/04/19 00:39:45;;;;;;;2.47;2.28;;;;;;;;;;5105715;28;20195;-69
2022/04/19 00:42:12;;;;;;;2.50;2.30;;;;;;;;;;5105811;28;20204;-69
2022/04/19 00:44:39;;;;;;;2.60;2.40;;;;;;;;;;5105461;28;20196;-69
2022/04/19 00:47:07;;;;;;;2.58;2.47;;;;;;;;;;5105272;28;20212;-69
2022/04/19 00:49:34;;;;;;;2.85;2.38;;;;;;;;;;5105331;28;20200;-69
2022/04/19 00:52:02;;;;;;;2.97;2.80;;;;;;;;;;5105430;28;20202;-69
2022/04/19 00:54:29;;;;;;;4.28;2.78;;;;;;;;;;5105432;28;20200;-69
2022/04/19 00:56:55;;;;;;;3.45;2.90;;;;;;;;;;5105120;28;20230;-69
2022/04/19 00:59:22;;;;;;;2.72;2.55;;;;;;;;;;5105185;28;20195;-69
2022/04/19 01:01:49;;;;;;;2.50;2.40;;;;;;;;;;5104978;28;20203;-69
2022/04/19 01:04:15;;;;;;;2.60;2.45;;;;;;;;;;5105323;28;20196;-69
2022/04/19 01:06:41;;;;;;;3.58;2.88;;;;;;;;;;5104848;28;20410;-69
2022/04/19 01:09:09;;;;;;;2.97;2.63;;;;;;;;;;5105153;28;20410;-69
2022/04/19 01:14:31;;;;;;;2.58;2.38;;;;;;;;;;5062515;28;20205;-69
2022/04/19 01:16:58;;;;;;;2.63;2.53;;;;;;;;;;5094663;28;20195;-69
2022/04/19 01:19:24;;;;;;;3.38;2.20;;;;;;;;;;5104767;28;20200;-69
2022/04/19 01:21:54;;;;;;;2.40;2.30;;;;;;;;;;5104947;28;20196;-69
2022/04/19 01:24:21;;;;;;;2.92;2.75;;;;;;;;;;5104004;28;20249;-69
2022/04/19 01:26:48;;;;;;;3.60;2.78;;;;;;;;;;5104219;28;20429;-69
2022/04/19 01:29:15;;;;;;;2.65;2.45;;;;;;;;;;5104751;28;20196;-69
2022/04/19 01:31:42;;;;;;;2.80;2.65;;;;;;;;;;5104074;28;20203;-69
2022/04/19 01:34:08;;;;;;;2.55;2.45;;;;;;;;;;5104597;28;20200;-69
2022/04/19 01:36:34;;;;;;;2.67;2.58;;;;;;;;;;5104161;28;20192;-69
2022/04/19 01:39:02;;;;;;;2.67;2.45;;;;;;;;;;5104659;28;20231;-69
2022/04/19 01:41:28;;;;;;;2.55;2.33;;;;;;;;;;5104555;28;20196;-69
2022/04/19 01:43:54;;;;;;;6.57;2.30;;;;;;;;;;5104587;28;20195;-69
2022/04/19 01:46:23;;;;;;;2.53;2.40;;;;;;;;;;5104238;28;20425;-69
2022/04/19 01:48:50;;;;;;;3.63;2.67;;;;;;;;;;5104403;28;20199;-69
2022/04/19 01:51:16;;;;;;;2.60;2.40;;;;;;;;;;5104216;28;20507;-69
2022/04/19 01:53:42;;;;;;;2.78;2.58;;;;;;;;;;5104385;28;20206;-69
2022/04/19 01:56:10;;;;;;;2.40;2.15;;;;;;;;;;5104261;28;20379;-69
2022/04/19 01:58:38;;;;;;;2.70;2.50;;;;;;;;;;5104185;28;20241;-69
2022/04/19 02:01:04;;;;;;;3.80;2.50;;;;;;;;;;5103903;28;20204;-69
2022/04/19 02:03:30;;;;;;;2.63;2.42;;;;;;;;;;5103958;28;20199;-69
2022/04/19 02:05:56;;;;;;;3.40;2.95;;;;;;;;;;5104025;28;20277;-69
2022/04/19 02:08:23;;;;;;;5.03;2.70;;;;;;;;;;5104219;28;20445;-69
2022/04/19 02:10:49;;;;;;;2.92;2.72;;;;;;;;;;5103839;28;20234;-69
2022/04/19 02:13:17;;;;;;;2.60;2.33;;;;;;;;;;5103761;28;20200;-69
2022/04/19 02:15:43;;;;;;;2.42;2.22;;;;;;;;;;5103689;28;20203;-69
2022/04/19 02:18:10;;;;;;;2.58;2.38;;;;;;;;;;5103470;28;20219;-69
2022/04/19 02:20:36;;;;;;;3.38;3.17;;;;;;;;;;5103831;28;20267;-69
2022/04/19 02:23:03;;;;;;;2.67;2.42;;;;;;;;;;5103633;28;20217;-69
2022/04/19 02:25:29;;;;;;;2.88;2.60;;;;;;;;;;5103626;28;20195;-69
2022/04/19 02:27:55;;;;;;;3.00;2.80;;;;;;;;;;5103138;28;20449;-69
2022/04/19 02:30:23;;;;;;;3.53;3.08;;;;;;;;;;5103980;28;20222;-69
2022/04/19 02:32:50;;;;;;;2.90;2.70;;;;;;;;;;5103693;28;20260;-69
2022/04/19 02:35:18;;;;;;;3.20;3.00;;;;;;;;;;5103410;28;20196;-69
2022/04/19 02:37:48;;;;;;;2.60;2.50;;;;;;;;;;5103253;28;20219;-69
2022/04/19 02:40:14;;;;;;;3.55;3.08;;;;;;;;;;5103264;28;20196;-69
2022/04/19 02:42:41;;;;;;;3.47;3.28;;;;;;;;;;5103453;28;20196;-69
2022/04/19 02:45:07;;;;;;;3.15;2.95;;;;;;;;;;5103250;28;20200;-69
2022/04/19 02:47:35;;;;;;;3.50;3.08;;;;;;;;;;5103065;28;20453;-69
2022/04/19 02:50:01;;;;;;;2.95;2.80;;;;;;;;;;5103210;28;20273;-69
2022/04/19 02:52:28;;;;;;;2.60;2.50;;;;;;;;;;5103215;28;20199;-69
2022/04/19 02:54:54;;;;;;;3.17;2.97;;;;;;;;;;5103078;28;20260;-69
2022/04/19 02:57:20;;;;;;;2.83;2.67;;;;;;;;;;5103058;28;20192;-69
2022/04/19 02:59:46;;;;;;;3.92;3.20;;;;;;;;;;5102754;28;20521;-69
2022/04/19 03:02:14;;;;;;;5.60;3.28;;;;;;;;;;5103151;28;20518;-69
2022/04/19 03:04:41;;;;;;;3.65;2.90;;;;;;;;;;5103002;28;20411;-69
2022/04/19 03:07:08;;;;;;;2.78;2.67;;;;;;;;;;5102744;28;20455;-69
2022/04/19 03:09:34;;;;;;;3.20;2.92;;;;;;;;;;5102833;28;20241;-69
2022/04/19 03:12:01;;;;;;;3.03;2.85;;;;;;;;;;5102740;28;20196;-69
2022/04/19 03:14:29;;;;;;;2.80;2.60;;;;;;;;;;5102549;28;20196;-69
2022/04/19 03:16:55;;;;;;;3.28;3.00;;;;;;;;;;5102540;28;20245;-69
2022/04/19 03:19:21;;;;;;;2.65;2.55;;;;;;;;;;5102643;28;20203;-69
2022/04/19 03:21:49;;;;;;;2.75;2.65;;;;;;;;;;5102643;28;20195;-69
2022/04/19 03:29:42;;;;;;;3.10;2.90;;;;;;;;;;5102657;28;20228;-69
2022/04/19 03:32:09;;;;;;;5.90;3.10;;;;;;;;;;5102660;28;20203;-69
2022/04/19 03:34:36;;;;;;;3.70;3.40;;;;;;;;;;5102534;28;20195;-69
2022/04/19 03:37:03;;;;;;;3.50;3.05;;;;;;;;;;5102318;28;20196;-69
2022/04/19 03:39:30;;;;;;;4.05;3.75;;;;;;;;;;5102383;28;20203;-69
2022/04/19 03:41:58;;;;;;;6.85;4.20;;;;;;;;;;5102581;28;20423;-69
2022/04/19 03:44:25;;;;;;;4.00;3.60;;;;;;;;;;5102771;28;20223;-69
2022/04/19 03:47:09;;;;;;;4.88;3.45;;;;;;;;;;5104486;28;20267;-69
2022/04/19 03:49:36;;;;;;;3.90;3.47;;;;;;;;;;5106604;28;20381;-69
2022/04/19 03:52:04;;;;;;;4.78;4.03;;;;;;;;;;5106469;28;20507;-69
2022/04/19 03:54:31;;;;;;;3.67;3.35;;;;;;;;;;5106660;28;20199;-69
2022/04/19 03:56:57;;;;;;;4.38;3.22;;;;;;;;;;5106475;28;20241;-69
2022/04/19 03:59:24;;;;;;;3.20;3.00;;;;;;;;;;5106632;28;20199;-69
2022/04/19 04:01:50;;;;;;;3.25;3.05;;;;;;;;;;5106352;28;20207;-69
2022/04/19 04:04:16;;;;;;;5.65;3.22;;;;;;;;;;5106326;28;20195;-69
2022/04/19 04:06:42;;;;;;;5.10;3.00;;;;;;;;;;5106490;28;20382;-69
2022/04/19 04:09:10;;;;;;;4.40;3.20;;;;;;;;;;5106258;28;20550;-69
2022/04/19 04:11:36;;;;;;;3.10;2.90;;;;;;;;;;5105357;28;20496;-69
2022/04/19 04:14:02;;;;;;;3.00;2.80;;;;;;;;;;5105247;28;20526;-69
2022/04/19 04:16:29;;;;;;;5.70;3.17;;;;;;;;;;5104664;28;20208;-69
2022/04/19 04:18:55;;;;;;;4.75;3.20;;;;;;;;;;5105981;28;20192;-69
2022/04/19 04:21:21;;;;;;;4.63;3.90;;;;;;;;;;5106217;28;20249;-69
2022/04/19 04:23:47;;;;;;;3.67;3.38;;;;;;;;;;5106049;28;20200;-69
2022/04/19 04:26:15;;;;;;;5.10;3.45;;;;;;;;;;5105836;28;20202;-69
2022/04/19 04:28:41;;;;;;;3.97;3.38;;;;;;;;;;5105822;28;20224;-68
2022/04/19 04:31:07;;;;;;;3.30;3.00;;;;;;;;;;5105868;28;20274;-69
2022/04/19 04:33:34;;;;;;;3.15;2.85;;;;;;;;;;5105700;28;20403;-69
2022/04/19 04:36:00;;;;;;;3.88;3.38;;;;;;;;;;5105636;28;20241;-69
2022/04/19 04:38:26;;;;;;;4.85;3.13;;;;;;;;;;5105759;28;20196;-68
2022/04/19 04:40:52;;;;;;;6.22;3.25;;;;;;;;;;5105892;28;20203;-69
2022/04/19 04:43:20;;;;;;;6.28;3.47;;;;;;;;;;5105609;28;20238;-68
2022/04/19 04:49:35;;;;;;;5.60;3.55;;;;;;;;;;5105533;28;20196;-68
2022/04/19 04:51:16;;;;;;;3.72;3.13;;;;;;;;;;5105333;28;20225;-69
2022/04/19 04:53:43;;;;;;;3.78;3.47;;;;;;;;;;5105433;28;20233;-69
2022/04/19 04:56:09;;;;;;;5.13;3.70;;;;;;;;;;5105209;28;20249;-69
2022/04/19 04:58:36;;;;;;;4.50;3.50;;;;;;;;;;5105112;28;20196;-69
2022/04/19 05:01:03;;;;;;;6.88;3.75;;;;;;;;;;5105301;28;20278;-69
2022/04/19 05:03:29;;;;;;;3.47;3.28;;;;;;;;;;5105460;28;20499;-69
2022/04/19 05:05:57;;;;;;;4.72;3.35;;;;;;;;;;5105004;28;20442;-69
2022/04/19 05:08:23;;;;;;;6.15;3.47;;;;;;;;;;5103735;28;20203;-69
2022/04/19 05:10:49;;;;;;;5.38;3.90;;;;;;;;;;5105121;28;20222;-69
2022/04/19 05:13:16;;;;;;;6.15;3.42;;;;;;;;;;5105189;28;20204;-69
2022/04/19 05:15:43;;;;;;;3.92;3.35;;;;;;;;;;5105334;28;20199;-69
2022/04/19 05:18:09;;;;;;;4.60;3.03;;;;;;;;;;5104732;28;20495;-69
2022/04/19 05:20:36;;;;;;;4.00;3.65;;;;;;;;;;5104851;28;20199;-68
2022/04/19 05:23:02;;;;;;;6.00;3.60;;;;;;;;;;5104817;28;20196;-68
2022/04/19 05:25:28;;;;;;;4.75;4.13;;;;;;;;;;5104716;28;20510;-68
2022/04/19 05:27:54;;;;;;;5.60;3.85;;;;;;;;;;5104334;28;20253;-68
2022/04/19 05:30:21;;;;;;;4.07;3.72;;;;;;;;;;5104823;28;20203;-69
2022/04/19 05:32:48;;;;;;;7.28;4.03;;;;;;;;;;5104773;28;20196;-69
2022/04/19 05:35:15;;;;;;;6.78;3.97;;;;;;;;;;5104510;28;20466;-69
2022/04/19 05:37:41;;;;;;;6.15;4.50;;;;;;;;;;5104275;28;20192;-69
2022/04/19 05:40:08;;;;;;;11.93;4.30;;;;;;;;;;5104824;28;20191;-69
2022/04/19 05:42:34;;;;;;;7.18;4.40;;;;;;;;;;5104638;28;20415;-69
2022/04/19 05:45:00;;;;;;;12.10;5.07;;;;;;;;;;5104544;28;20496;-69
2022/04/19 05:47:26;;;;;;;9.18;4.63;;;;;;;;;;5104243;28;20250;-69
2022/04/19 05:49:54;;;;;;;7.57;4.93;;;;;;;;;;5104686;28;20548;-69
2022/04/19 05:52:20;;;;;;;8.45;4.80;;;;;;;;;;5104153;28;20192;-68
2022/04/19 05:54:47;;;;;;;8.45;4.38;;;;;;;;;;5104055;28;20265;-69
2022/04/19 05:57:13;;;;;;;7.45;4.38;;;;;;;;;;5104213;28;20241;-69
2022/04/19 05:59:39;;;;;;;4.07;3.78;;;;;;;;;;5082088;28;20239;-69
2022/04/19 06:04:57;;;;;;;8.35;4.22;;;;;;;;;;5088851;28;20211;-58
2022/04/19 06:07:25;;;;;;;8.32;4.43;;;;;;;;;;5098032;28;20235;-60
2022/04/19 06:09:51;;;;;;;9.05;4.85;;;;;;;;;;5088473;28;20235;-59
2022/04/19 06:12:17;;;;;;;4.47;3.75;;;;;;;;;;5077740;28;20274;-59
2022/04/19 06:14:44;;;;;;;4.28;3.88;;;;;;;;;;5077667;28;20234;-56
2022/04/19 06:17:12;;;;;;;5.97;3.88;;;;;;;;;;5089796;28;20208;-57
2022/04/19 06:19:39;;;;;;;6.25;3.50;;;;;;;;;;5097519;28;20223;-58
2022/04/19 06:22:05;;;;;;;4.63;3.83;;;;;;;;;;5097933;28;20265;-57
2022/04/19 06:24:33;;;;;;;6.85;3.70;;;;;;;;;;5098301;28;20202;-58
2022/04/19 06:26:59;;;;;;;4.70;3.97;;;;;;;;;;5097691;28;20249;-58
2022/04/19 06:29:25;;;;;;;3.92;3.72;;;;;;;;;;5097155;28;20231;-58
2022/04/19 06:31:51;;;;;;;3.60;3.30;;;;;;;;;;5097632;28;20564;-59
2022/04/19 06:34:18;;;;;;;3.80;3.40;;;;;;;;;;5097114;28;20265;-60
2022/04/19 06:36:44;;;;;;;3.97;3.67;;;;;;;;;;5096841;28;20265;-60
2022/04/19 06:39:10;;;;;;;4.05;3.58;;;;;;;;;;5097281;28;20449;-61
2022/04/19 06:41:38;;;;;;;5.15;3.75;;;;;;;;;;5097133;28;20242;-61
2022/04/19 06:44:06;;;;;;;4.85;3.30;;;;;;;;;;5092297;28;20210;-60
2022/04/19 06:46:32;;;;;;;3.72;3.42;;;;;;;;;;5093186;28;20216;-60
2022/04/19 06:48:59;;;;;;;3.65;3.40;;;;;;;;;;5076480;28;20228;-59
2022/04/19 06:51:26;;;;;;;6.97;3.78;;;;;;;;;;5094613;28;20216;-58
2022/04/19 06:53:52;;;;;;;4.30;4.10;;;;;;;;;;5096989;28;20239;-60
2022/04/19 06:56:19;;;;;;;5.22;3.53;;;;;;;;;;5097246;28;20208;-60
2022/04/19 06:58:46;;;;;;;3.75;3.53;;;;;;;;;;5097298;28;20203;-60
2022/04/19 07:01:13;;;;;;;4.15;3.75;;;;;;;;;;5096843;28;20222;-61
2022/04/19 07:03:39;;;;;;;3.97;3.65;;;;;;;;;;5096891;28;20207;-61
2022/04/19 07:06:06;;;;;;;4.30;3.88;;;;;;;;;;5094834;28;20477;-60
2022/04/19 07:08:32;;;;;;;4.43;3.78;;;;;;;;;;5095400;28;20273;-60
2022/04/19 07:11:00;;;;;;;5.35;3.67;;;;;;;;;;5095825;28;20207;-58
2022/04/19 07:13:26;;;;;;;6.07;3.55;;;;;;;;;;5096293;28;20208;-60
2022/04/19 07:15:54;;;;;;;3.95;3.60;;;;;;;;;;5096019;28;20211;-60
2022/04/19 07:18:23;;;;;;;3.95;3.65;;;;;;;;;;5095939;28;20200;-60
2022/04/19 07:29:01;;;;;;;9.10;4.40;;;;;;;;;;5096040;28;20261;-60
2022/04/19 07:31:29;;;;;;;5.15;3.90;;;;;;;;;;5095486;28;20208;-60
2022/04/19 07:33:55;;;;;;;4.53;3.40;;;;;;;;;;5096252;28;20211;-59
2022/04/19 07:36:22;;;;;;;4.45;4.13;;;;;;;;;;5095936;28;20219;-61
2022/04/19 07:38:48;;;;;;;4.32;3.92;;;;;;;;;;5095674;28;20203;-59
2022/04/19 07:41:15;;;;;;;5.93;4.05;;;;;;;;;;5095740;28;20219;-60
2022/04/19 07:43:43;;;;;;;6.80;4.30;;;;;;;;;;5096208;28;20519;-62
2022/04/19 07:46:10;;;;;;;7.18;3.90;;;;;;;;;;5095804;28;20261;-61
2022/04/19 07:48:38;;;;;;;6.15;3.17;;;;;;;;;;5095753;28;20424;-60
2022/04/19 07:51:04;;;;;;;4.15;3.72;;;;;;;;;;5095680;28;20235;-59
2022/04/19 07:53:30;;;;;;;9.35;4.30;;;;;;;;;;5096331;28;20212;-60
2022/04/19 07:55:57;;;;;;;7.53;4.03;;;;;;;;;;5096564;28;20211;-59
2022/04/19 07:58:24;;;;;;;4.80;3.90;;;;;;;;;;5095783;28;20592;-59
2022/04/19 08:00:50;;;;;;;7.10;4.00;;;;;;;;;;5095935;28;20211;-60
2022/04/19 08:03:16;;;;;;;6.43;4.18;;;;;;;;;;5096172;28;20268;-60
2022/04/19 08:05:44;;;;;;;9.65;4.13;;;;;;;;;;5096954;28;20269;-60
2022/04/19 08:08:10;;;;;;;4.15;3.67;;;;;;;;;;5095332;28;20208;-60
2022/04/19 08:10:36;;;;;;;5.90;3.85;;;;;;;;;;5095113;28;20510;-60
2022/04/19 08:13:03;;;;;;;4.07;3.78;;;;;;;;;;5095774;28;20257;-60
2022/04/19 08:15:30;;;;;;;8.18;3.75;;;;;;;;;;5095664;28;20207;-59
2022/04/19 08:17:57;;;;;;;5.32;3.75;;;;;;;;;;5095684;28;20208;-60
2022/04/19 08:20:23;;;;;;;5.05;3.90;;;;;;;;;;5095962;28;20203;-61
2022/04/19 08:22:50;;;;;;;4.65;3.75;;;;;;;;;;5096264;28;20200;-60
2022/04/19 08:25:17;;;;;;;11.48;4.10;;;;;;;;;;5096272;28;20421;-59
2022/04/19 08:27:45;;;;;;;6.75;4.20;;;;;;;;;;5095962;28;20199;-58
2022/04/19 08:30:12;;;;;;;5.45;3.58;;;;;;;;;;5095729;28;20231;-58
2022/04/19 08:32:39;;;;;;;4.18;3.78;;;;;;;;;;5098221;28;20208;-60
2022/04/19 08:35:06;;;;;;;8.18;4.22;;;;;;;;;;5099897;28;20515;-59
2022/04/19 08:37:32;;;;;;;4.72;4.30;;;;;;;;;;5099521;28;20261;-61
2022/04/19 08:39:59;;;;;;;5.32;4.28;;;;;;;;;;5099446;28;20204;-59
2022/04/19 08:42:29;;;;;;;4.43;4.03;;;;;;;;;;5099841;28;20303;-61
2022/04/19 08:44:55;;;;;;;4.55;3.80;;;;;;;;;;5099678;28;20207;-61
2022/04/19 08:47:22;;;;;;;6.30;4.10;;;;;;;;;;5099539;28;20207;-61
2022/04/19 08:49:49;;;;;;;9.75;7.07;;;;;;;;;;5099171;28;20273;-60
2022/04/19 08:52:17;;;;;;;6.40;4.05;;;;;;;;;;5099179;28;20200;-61
2022/04/19 08:57:31;;;;;;;10.73;4.72;;;;;;;;;;5098979;28;20234;-61
2022/04/19 08:59:58;;;;;;;8.32;4.40;;;;;;;;;;5098653;28;20211;-60
2022/04/19 09:02:25;;;;;;;4.97;4.15;;;;;;;;;;5099116;28;20214;-60
2022/04/19 09:04:52;;;;;;;5.60;4.68;;;;;;;;;;5099250;28;20423;-61
2022/04/19 09:07:18;;;;;;;4.88;3.90;;;;;;;;;;5099057;28;20207;-61
2022/04/19 09:09:57;;;;;;;5.95;4.43;;;;;;;;;;5099132;28;20219;-61
2022/04/19 09:12:23;;;;;;;5.97;3.80;;;;;;;;;;5099188;28;20245;-60
2022/04/19 09:14:56;;;;;;;4.82;3.88;;;;;;;;;;5099121;28;20207;-61
2022/04/19 09:17:30;;;;;;;4.55;4.18;;;;;;;;;;5099103;28;20246;-61
2022/04/19 09:20:07;;;;;;;6.65;3.80;;;;;;;;;;5098728;28;20226;-61
2022/04/19 09:22:33;;;;;;;3.88;3.67;;;;;;;;;;5099029;28;20207;-61
2022/04/19 09:25:13;;;;;;;5.78;3.60;;;;;;;;;;5098679;28;20211;-62
2022/04/19 09:27:39;;;;;;;4.20;3.55;;;;;;;;;;5098897;28;20208;-62
2022/04/19 09:30:16;;;;;;;4.00;3.55;;;;;;;;;;5098353;28;20528;-62
2022/04/19 09:32:43;;;;;;;7.60;3.08;;;;;;;;;;5099032;28;20417;-62
2022/04/19 09:35:09;;;;;;;3.65;3.22;;;;;;;;;;5099010;28;20204;-61
2022/04/19 09:37:35;;;;;;;2.92;2.72;;;;;;;;;;5098384;28;20444;-62
2022/04/19 09:40:02;;;;;;;3.53;3.05;;;;;;;;;;5098052;28;20203;-61
2022/04/19 09:42:28;;;;;;;4.47;3.28;;;;;;;;;;5098293;28;20207;-61
2022/04/19 09:44:57;;;;;;;3.47;2.60;;;;;;;;;;5097702;28;20207;-61
2022/04/19 09:47:24;;;;;;;4.35;2.63;;;;;;;;;;5097845;28;20278;-61
2022/04/19 09:49:51;;;;;;;2.65;2.35;;;;;;;;;;5097991;28;20228;-61
2022/04/19 09:52:38;;;;;;;3.65;3.40;;;;;;;;;;5098079;28;20475;-61
2022/04/19 09:55:05;;;;;;;4.50;2.40;;;;;;;;;;5098709;28;20200;-62
2022/04/19 09:57:32;;;;;;;3.55;2.20;;;;;;;;;;5098137;28;20561;-62
2022/04/19 09:59:59;;;;;;;2.47;2.17;;;;;;;;;;5097741;28;20203;-57
2022/04/19 10:10:39;;;;;;;3.17;2.97;;;;;;;;;;5097724;28;20265;-59
2022/04/19 10:13:06;;;;;;;2.65;2.45;;;;;;;;;;5097860;28;20226;-58
2022/04/19 10:15:32;;;;;;;2.83;2.63;;;;;;;;;;5098175;28;20207;-59
2022/04/19 10:18:00;;;;;;;2.95;2.75;;;;;;;;;;5097585;28;20435;-60
2022/04/19 10:20:31;;;;;;;3.10;2.80;;;;;;;;;;5097316;28;20257;-59
2022/04/19 10:23:01;;;;;;;4.35;2.80;;;;;;;;;;5098091;28;20286;-59
2022/04/19 10:25:34;;;;;;;4.05;3.25;;;;;;;;;;5097948;28;20211;-59
2022/04/19 10:28:03;;;;;;;2.90;2.80;;;;;;;;;;5097730;28;20208;-59
2022/04/19 10:30:32;;;;;;;3.42;2.58;;;;;;;;;;5097258;28;20230;-59
2022/04/19 10:33:00;;;;;;;6.57;3.33;;;;;;;;;;5097655;28;20430;-59
2022/04/19 10:35:26;;;;;;;4.18;3.58;;;;;;;;;;5097735;28;20417;-59
2022/04/19 10:38:07;;;;;;;3.03;2.80;;;;;;;;;;5096986;28;20257;-58
2022/04/19 10:40:49;;;;;;;5.13;2.50;;;;;;;;;;5096605;28;20207;-59
2022/04/19 10:43:15;;;;;;;3.28;3.00;;;;;;;;;;5097455;28;20253;-59
2022/04/19 10:45:41;;;;;;;4.35;3.10;;;;;;;;;;5097222;28;20207;-59
2022/04/19 10:48:10;;;;;;;7.38;3.70;;;;;;;;;;5097104;28;20207;-59
2022/04/19 10:50:39;;;;;;;3.20;2.90;;;;;;;;;;5096546;28;20382;-59
2022/04/19 10:53:06;;;;;;;3.88;3.47;;;;;;;;;;5097322;28;20231;-59
2022/04/19 10:55:32;;;;;;;4.78;2.70;;;;;;;;;;5097335;28;20248;-59
2022/04/19 10:58:09;;;;;;;3.42;2.75;;;;;;;;;;5096958;28;20211;-59
2022/04/19 11:00:37;;;;;;;2.88;2.67;;;;;;;;;;5096407;28;20277;-58
2022/04/19 11:03:03;;;;;;;2.63;2.45;;;;;;;;;;5096967;28;20546;-58
2022/04/19 11:05:44;;;;;;;2.58;2.47;;;;;;;;;;5096762;28;20227;-59
2022/04/19 11:08:23;;;;;;;2.75;2.55;;;;;;;;;;5096486;28;20208;-58
2022/04/19 11:10:50;;;;;;;3.70;3.00;;;;;;;;;;5096482;28;20452;-58
2022/04/19 11:13:16;;;;;;;3.50;2.83;;;;;;;;;;5097295;28;20212;-59
2022/04/19 11:15:42;;;;;;;2.60;2.40;;;;;;;;;;5096858;28;20234;-59
2022/04/19 11:18:24;;;;;;;3.40;3.20;;;;;;;;;;5096589;28;20400;-59
2022/04/19 11:20:52;;;;;;;2.85;2.70;;;;;;;;;;5096417;28;20485;-59
2022/04/19 11:23:19;;;;;;;3.35;3.15;;;;;;;;;;5097244;28;20214;-59
2022/04/19 11:25:47;;;;;;;3.03;2.72;;;;;;;;;;5097265;28;20203;-59
2022/04/19 11:28:20;;;;;;;2.88;2.67;;;;;;;;;;5096680;28;20379;-59
2022/04/19 11:31:06;;;;;;;4.15;2.70;;;;;;;;;;5096548;28;20227;-61
2022/04/19 11:33:33;;;;;;;3.20;2.42;;;;;;;;;;5097499;28;20207;-58
2022/04/19 11:36:01;;;;;;;3.08;2.47;;;;;;;;;;5097123;28;20279;-60
2022/04/19 11:38:28;;;;;;;2.85;2.58;;;;;;;;;;5096582;28;20211;-61
2022/04/19 11:49:07;;;;;;;3.13;3.00;;;;;;;;;;5096163;28;20272;-61
2022/04/19 11:51:36;;;;;;;2.90;2.55;;;;;;;;;;5096347;28;20542;-61
2022/04/19 11:54:03;;;;;;;2.95;2.75;;;;;;;;;;5090316;28;20433;-61
2022/04/19 11:56:29;;;;;;;3.53;3.20;;;;;;;;;;5093251;28;20234;-61
2022/04/19 11:58:58;;;;;;;3.40;2.67;;;;;;;;;;5095547;28;20211;-61
2022/04/19 12:01:24;;;;;;;4.93;3.53;;;;;;;;;;5095900;28;20216;-60
2022/04/19 12:03:50;;;;;;;4.35;2.50;;;;;;;;;;5096233;28;20268;-61
2022/04/19 12:06:18;;;;;;;1.88;1.88;;;;;;;;;;5096236;28;20261;-61
2022/04/19 12:08:49;;;;;;;4.10;2.30;;;;;;;;;;5100030;28;20207;-61
2022/04/19 12:11:16;;;;;;;2.30;2.20;;;;;;;;;;5100279;28;20224;-61
2022/04/19 12:13:43;;;;;;;3.60;3.17;;;;;;;;;;5100357;28;20243;-60
2022/04/19 12:16:26;;;;;;;3.33;3.05;;;;;;;;;;5100175;28;20257;-60
2022/04/19 12:18:53;;;;;;;3.95;3.67;;;;;;;;;;5100126;28;20245;-60
2022/04/19 12:21:33;;;;;;;7.25;3.53;;;;;;;;;;5100107;28;20204;-58
2022/04/19 12:24:01;;;;;;;2.90;2.65;;;;;;;;;;5100301;28;20286;-59
2022/04/19 12:26:27;;;;;;;3.67;2.97;;;;;;;;;;5100178;28;20563;-60
2022/04/19 12:28:53;;;;;;;5.78;3.40;;;;;;;;;;5099760;28;20211;-61
2022/04/19 12:31:33;;;;;;;5.07;3.38;;;;;;;;;;5099920;28;20512;-61
2022/04/19 12:33:59;;;;;;;4.50;3.00;;;;;;;;;;5099956;28;20530;-60
2022/04/19 12:36:26;;;;;;;4.70;3.58;;;;;;;;;;5096520;28;20208;-58
2022/04/19 12:39:01;;;;;;;3.38;2.65;;;;;;;;;;5080990;28;20212;-59
2022/04/19 12:41:38;;;;;;;2.60;2.38;;;;;;;;;;5079690;28;20585;-60
2022/04/19 12:44:05;;;;;;;2.88;2.78;;;;;;;;;;5079337;28;20212;-60
2022/04/19 12:46:31;;;;;;;3.60;3.25;;;;;;;;;;5079582;28;20565;-60
2022/04/19 12:48:58;;;;;;;4.47;3.80;;;;;;;;;;5079272;28;20414;-60
2022/04/19 12:51:25;;;;;;;3.97;3.63;;;;;;;;;;5078976;28;20231;-60
2022/04/19 12:54:12;;;;;;;4.47;3.92;;;;;;;;;;5092907;28;20208;-59
2022/04/19 12:56:39;;;;;;;5.22;3.83;;;;;;;;;;5094162;28;20212;-60
2022/04/19 12:59:05;;;;;;;3.72;3.40;;;;;;;;;;5099151;28;20253;-60
2022/04/19 13:01:32;;;;;;;5.32;3.78;;;;;;;;;;5099126;28;20215;-59
2022/04/19 13:03:58;;;;;;;28.90;6.28;;;;;;;;;;5099585;28;20568;-59
2022/04/19 13:14:37;;;;;;;8.30;3.50;;;;;;;;;;5099281;28;20226;-59
2022/04/19 13:17:04;;;;;;;3.75;3.40;;;;;;;;;;5098892;28;20208;-59
2022/04/19 13:19:30;;;;;;;3.90;2.90;;;;;;;;;;5097085;28;20208;-56
2022/04/19 13:21:56;;;;;;;5.43;2.85;;;;;;;;;;5098847;28;20212;-60
2022/04/19 13:24:22;;;;;;;4.13;2.95;;;;;;;;;;5099572;28;20207;-58
2022/04/19 13:26:48;;;;;;;4.22;3.42;;;;;;;;;;5098500;28;20199;-60
2022/04/19 13:29:16;;;;;;;4.40;3.50;;;;;;;;;;5098464;28;20253;-59
2022/04/19 13:31:42;;;;;;;3.03;2.83;;;;;;;;;;5098499;28;20438;-61
2022/04/19 13:34:09;;;;;;;3.33;3.13;;;;;;;;;;5098640;28;20242;-61
2022/04/19 13:36:35;;;;;;;3.00;2.72;;;;;;;;;;5098445;28;20207;-61
2022/04/19 13:39:01;;;;;;;2.53;2.33;;;;;;;;;;5098697;28;20246;-62
2022/04/19 13:41:27;;;;;;;3.17;2.88;;;;;;;;;;5097806;28;20284;-61
2022/04/19 13:43:54;;;;;;;3.55;3.25;;;;;;;;;;5098527;28;20427;-61
2022/04/19 13:46:21;;;;;;;4.82;3.63;;;;;;;;;;5097479;28;20216;-61
2022/04/19 13:48:48;;;;;;;3.38;3.08;;;;;;;;;;5099070;28;20256;-61
2022/04/19 13:51:14;;;;;;;5.88;2.53;;;;;;;;;;5098342;28;20223;-60
2022/04/19 13:53:40;;;;;;;5.10;2.90;;;;;;;;;;5098438;28;20207;-59
2022/04/19 13:56:07;;;;;;;3.53;3.22;;;;;;;;;;5097952;28;20505;-59
2022/04/19 13:58:33;;;;;;;5.22;3.08;;;;;;;;;;5098314;28;20229;-61
2022/04/19 14:01:01;;;;;;;3.28;2.97;;;;;;;;;;5097887;28;20211;-60
2022/04/19 14:03:29;;;;;;;2.92;2.72;;;;;;;;;;5097952;28;20215;-61
2022/04/19 14:05:55;;;;;;;5.47;3.53;;;;;;;;;;5097768;28;20265;-60
2022/04/19 14:08:22;;;;;;;7.43;4.00;;;;;;;;;;5097619;28;20208;-61
2022/04/19 14:10:48;;;;;;;3.42;3.08;;;;;;;;;;5097427;28;20231;-61
2022/04/19 14:13:14;;;;;;;3.00;2.70;;;;;;;;;;5097878;28;20441;-60
2022/04/19 14:15:40;;;;;;;3.22;3.00;;;;;;;;;;5098509;28;20216;-60
2022/04/19 14:18:06;;;;;;;3.05;2.85;;;;;;;;;;5097620;28;20519;-61
2022/04/19 14:20:34;;;;;;;3.65;2.85;;;;;;;;;;5097426;28;20531;-61
2022/04/19 14:23:00;;;;;;;3.47;3.22;;;;;;;;;;5097686;28;20348;-61
2022/04/19 14:25:26;;;;;;;3.30;3.10;;;;;;;;;;5097924;28;20444;-61
2022/04/19 14:27:53;;;;;;;3.60;3.30;;;;;;;;;;5097482;28;20527;-61
2022/04/19 14:33:19;;;;;;;2.78;2.58;;;;;;;;;;5097748;28;20697;-61
2022/04/19 14:35:46;;;;;;;5.72;2.50;;;;;;;;;;5097623;28;20207;-61
2022/04/19 14:38:13;;;;;;;2.13;2.03;;;;;;;;;;5097665;28;20222;-58
2022/04/19 14:40:39;;;;;;;2.08;1.98;;;;;;;;;;5097613;28;20269;-63
2022/04/19 14:43:06;;;;;;;3.30;1.85;;;;;;;;;;5098045;28;20465;-60
2022/04/19 14:45:32;;;;;;;2.97;2.10;;;;;;;;;;5097453;28;20463;-60
2022/04/19 14:47:58;;;;;;;2.00;1.88;;;;;;;;;;5097161;28;20212;-60
2022/04/19 14:50:24;;;;;;;2.22;2.03;;;;;;;;;;5096753;28;20223;-61
2022/04/19 14:52:51;;;;;;;2.58;2.47;;;;;;;;;;5096751;28;20246;-61
2022/04/19 14:55:17;;;;;;;2.40;2.30;;;;;;;;;;5096605;28;20515;-61
2022/04/19 14:57:43;;;;;;;2.25;2.08;;;;;;;;;;5096477;28;20249;-60
2022/04/19 15:00:10;;;;;;;2.40;2.20;;;;;;;;;;5096278;28;20389;-58
2022/04/19 15:02:36;;;;;;;2.55;2.10;;;;;;;;;;5096663;28;20211;-59
2022/04/19 15:05:05;;;;;;;3.95;2.15;;;;;;;;;;5097015;28;20562;-59
2022/04/19 15:07:31;;;;;;;2.85;1.90;;;;;;;;;;5096442;28;20227;-58
2022/04/19 15:09:59;;;;;;;1.98;1.65;;;;;;;;;;5096070;28;20264;-59
2022/04/19 15:12:26;;;;;;;1.73;1.20;;;;;;;;;;5096205;28;20219;-59
2022/04/19 15:14:53;;;;;;;1.77;1.67;;;;;;;;;;5096155;28;20235;-59
2022/04/19 15:17:19;;;;;;;2.60;1.67;;;;;;;;;;5095756;28;20207;-59
2022/04/19 15:19:45;;;;;;;3.72;2.17;;;;;;;;;;5096071;28;20278;-59
2022/04/19 15:22:12;;;;;;;2.38;1.52;;;;;;;;;;5095813;28;20273;-60
2022/04/19 15:24:38;;;;;;;2.55;1.40;;;;;;;;;;5096131;28;20214;-60
2022/04/19 15:27:06;;;;;;;5.07;1.38;;;;;;;;;;5096019;28;20214;-60
2022/04/19 15:29:32;;;;;;;4.47;1.60;;;;;;;;;;5096398;28;20441;-59
2022/04/19 15:31:59;;;;;;;1.45;1.40;;;;;;;;;;5096260;28;20230;-59
2022/04/19 15:34:25;;;;;;;1.10;1.10;;;;;;;;;;5096458;28;20420;-59
2022/04/19 15:36:52;;;;;;;1.73;1.13;;;;;;;;;;5096389;28;20226;-60